TimeCST,TemperatureF,Dew PointF,Humidity,Sea Level PressureIn,VisibilityMPH,Wind Direction,Wind SpeedMPH,Gust SpeedMPH,PrecipitationIn,Events,Conditions,WindDirDegrees,DateUTC
12:55 AM,16.0,12.9,88,30.51,10.0,Calm,Calm,-,N/A,,Clear,0,2012-11-16 06:55:00
1:55 AM,17.1,12.9,84,30.49,10.0,SSE,4.6,-,N/A,,Clear,150,2012-11-16 07:55:00
2:55 AM,19.9,15.1,81,30.48,10.0,SSE,5.8,-,N/A,,Clear,150,2012-11-16 08:55:00
3:55 AM,19.9,15.1,81,30.45,10.0,SSE,6.9,-,N/A,,Clear,150,2012-11-16 09:55:00
4:55 AM,21.0,15.1,78,30.45,10.0,South,9.2,-,N/A,,Clear,170,2012-11-16 10:55:00
5:55 AM,21.9,16.0,78,30.43,10.0,SSE,9.2,-,N/A,,Clear,160,2012-11-16 11:55:00
6:55 AM,21.9,16.0,78,30.43,10.0,SSE,10.4,-,N/A,,Clear,150,2012-11-16 12:55:00
7:55 AM,21.9,16.0,78,30.44,10.0,SSE,10.4,-,N/A,,Clear,160,2012-11-16 13:55:00
8:55 AM,24.1,17.1,75,30.44,10.0,SSE,12.7,-,N/A,,Clear,150,2012-11-16 14:55:00
9:55 AM,30.0,19.9,66,30.41,10.0,SSE,12.7,24.2,N/A,,Clear,160,2012-11-16 15:55:00
10:55 AM,37.0,21.9,54,30.37,10.0,SSE,17.3,23.0,N/A,,Clear,150,2012-11-16 16:55:00
11:55 AM,42.1,23.0,47,30.32,10.0,SSE,16.1,25.3,N/A,,Clear,160,2012-11-16 17:55:00
12:55 PM,46.0,26.1,46,30.27,10.0,South,18.4,29.9,N/A,,Clear,170,2012-11-16 18:55:00
1:55 PM,48.9,28.0,44,30.22,10.0,SSE,15.0,28.8,N/A,,Clear,160,2012-11-16 19:55:00
2:55 PM,50.0,28.0,43,30.18,10.0,SSE,18.4,28.8,N/A,,Clear,160,2012-11-16 20:55:00
3:55 PM,50.0,30.0,46,30.16,10.0,SSE,19.6,26.5,N/A,,Clear,160,2012-11-16 21:55:00
4:55 PM,48.9,30.9,50,30.16,10.0,SSE,15.0,-,N/A,,Clear,160,2012-11-16 22:55:00
5:55 PM,46.0,30.9,56,30.15,10.0,SSE,13.8,19.6,N/A,,Clear,150,2012-11-16 23:55:00
6:55 PM,43.0,30.9,62,30.15,10.0,SSE,11.5,-,N/A,,Clear,150,2012-11-17 00:55:00
7:55 PM,42.1,30.9,65,30.14,10.0,SSE,13.8,21.9,N/A,,Clear,160,2012-11-17 01:55:00
8:55 PM,42.1,30.9,65,30.14,10.0,SSE,13.8,-,N/A,,Clear,160,2012-11-17 02:55:00
9:55 PM,41.0,32.0,70,30.14,10.0,SSE,15.0,23.0,N/A,,Clear,160,2012-11-17 03:55:00
10:55 PM,39.9,32.0,73,30.13,10.0,SSE,13.8,19.6,N/A,,Clear,150,2012-11-17 04:55:00
11:55 PM,39.9,32.0,73,30.12,10.0,SSE,12.7,19.6,N/A,,Clear,160,2012-11-17 05:55:00